createdAt,value
2018-01-04T00:00:13.590Z,0
2018-01-04T00:01:22.112Z,0
2018-01-04T00:02:30.635Z,0
2018-01-04T00:03:39.156Z,0
2018-01-04T00:04:47.944Z,0
2018-01-04T00:05:56.999Z,0
2018-01-04T00:07:06.053Z,0
2018-01-04T00:08:14.578Z,0
2018-01-04T00:09:23.095Z,0
2018-01-04T00:10:31.881Z,0
2018-01-04T00:11:40.406Z,0
2018-01-04T00:12:48.925Z,0
2018-01-04T00:13:57.712Z,0
2018-01-04T00:15:06.778Z,0
2018-01-04T00:16:15.567Z,0
2018-01-04T00:17:24.089Z,0
2018-01-04T00:18:33.409Z,0
2018-01-04T00:19:42.201Z,0
2018-01-04T00:20:51.255Z,0
2018-01-04T00:21:59.775Z,0
2018-01-04T00:23:08.293Z,0
2018-01-04T00:24:17.076Z,0
2018-01-04T00:25:26.144Z,0
2018-01-04T00:26:34.669Z,0
2018-01-04T00:27:43.729Z,0
2018-01-04T00:28:52.574Z,0
2018-01-04T00:30:01.633Z,0
2018-01-04T00:31:10.154Z,0
2018-01-04T00:32:19.494Z,0
2018-01-04T00:33:28.013Z,0
2018-01-04T00:34:37.326Z,0
2018-01-04T00:35:45.853Z,0
2018-01-04T00:36:54.643Z,0
2018-01-04T00:38:03.167Z,0
2018-01-04T00:39:11.958Z,0
2018-01-04T00:40:20.750Z,0
2018-01-04T00:41:29.278Z,0
2018-01-04T00:42:38.062Z,0
2018-01-04T00:43:46.852Z,0
2018-01-04T00:44:55.644Z,0
2018-01-04T00:46:04.167Z,0
2018-01-04T00:47:12.691Z,0
2018-01-04T00:48:21.793Z,0
2018-01-04T00:49:30.327Z,0
2018-01-04T00:50:38.841Z,0
2018-01-04T00:51:47.927Z,0
2018-01-04T00:52:56.455Z,0
2018-01-04T00:54:04.980Z,0
2018-01-04T00:55:13.504Z,0
2018-01-04T00:56:22.290Z,0
2018-01-04T00:57:31.133Z,0
2018-01-04T00:58:40.451Z,0
2018-01-04T00:59:49.244Z,0
2018-01-04T01:00:57.764Z,0
2018-01-04T01:02:06.873Z,0
2018-01-04T01:03:15.666Z,0
2018-01-04T01:04:24.461Z,0
2018-01-04T01:05:33.250Z,0
2018-01-04T01:06:42.046Z,0
2018-01-04T01:07:51.105Z,0
2018-01-04T01:09:00.160Z,0
2018-01-04T01:10:08.687Z,0
2018-01-04T01:11:17.483Z,0
2018-01-04T01:12:26.011Z,0
2018-01-04T01:13:34.528Z,0
2018-01-04T01:14:43.049Z,0
2018-01-04T01:15:51.582Z,0
2018-01-04T01:17:00.113Z,0
2018-01-04T01:18:08.904Z,0
2018-01-04T01:19:17.961Z,0
2018-01-04T01:20:27.011Z,0
2018-01-04T01:21:36.327Z,0
2018-01-04T01:22:45.381Z,0
2018-01-04T01:23:54.166Z,0
2018-01-04T01:25:02.684Z,0
2018-01-04T01:26:11.478Z,0
2018-01-04T01:27:20.262Z,0
2018-01-04T01:28:29.317Z,0
2018-01-04T01:29:38.372Z,0
2018-01-04T01:30:47.155Z,0
2018-01-04T01:31:55.950Z,0
2018-01-04T01:33:04.476Z,0
2018-01-04T01:34:13.807Z,0
2018-01-04T01:35:22.599Z,0
2018-01-04T01:36:31.120Z,0
2018-01-04T01:37:39.648Z,0
2018-01-04T01:38:48.975Z,0
2018-01-04T01:39:58.031Z,0
2018-01-04T01:41:06.558Z,0
2018-01-04T01:42:15.397Z,0
2018-01-04T01:43:23.926Z,0
2018-01-04T01:44:32.715Z,0
2018-01-04T01:45:41.504Z,0
2018-01-04T01:46:50.291Z,0
2018-01-04T01:47:58.814Z,0
2018-01-04T01:49:07.602Z,0
2018-01-04T01:50:17.185Z,0
2018-01-04T01:51:25.980Z,0
2018-01-04T01:52:34.773Z,0
2018-01-04T01:53:43.560Z,0
2018-01-04T01:54:52.085Z,0
2018-01-04T01:56:00.868Z,0
2018-01-04T01:57:09.392Z,0
2018-01-04T01:58:17.916Z,0
2018-01-04T01:59:26.443Z,0
2018-01-04T02:00:34.965Z,0
2018-01-04T02:01:43.764Z,0
2018-01-04T02:02:52.818Z,0
2018-01-04T02:04:01.606Z,0
2018-01-04T02:05:10.402Z,0
2018-01-04T02:06:18.927Z,0
2018-01-04T02:07:27.715Z,0
2018-01-04T02:08:36.240Z,0
2018-01-04T02:09:45.036Z,0
2018-01-04T02:10:53.820Z,0
2018-01-04T02:12:02.346Z,0
2018-01-04T02:13:11.133Z,0
2018-01-04T02:14:19.925Z,0
2018-01-04T02:15:28.715Z,0
2018-01-04T02:16:37.569Z,0
2018-01-04T02:17:46.302Z,0
2018-01-04T02:18:55.095Z,0
2018-01-04T02:20:03.623Z,0
2018-01-04T02:21:12.149Z,0
2018-01-04T02:22:20.936Z,0
2018-01-04T02:23:29.718Z,0
2018-01-04T02:24:38.241Z,0
2018-01-04T02:25:47.030Z,0
2018-01-04T02:26:55.819Z,0
2018-01-04T02:28:04.883Z,0
2018-01-04T02:29:14.206Z,0
2018-01-04T02:30:23.596Z,0
2018-01-04T02:31:32.395Z,0
2018-01-04T02:32:41.461Z,0
2018-01-04T02:33:50.524Z,0
2018-01-04T02:34:59.316Z,0
2018-01-04T02:36:07.834Z,0
2018-01-04T02:37:16.361Z,0
2018-01-04T02:38:25.155Z,0
2018-01-04T02:39:34.213Z,0
2018-01-04T02:40:43.270Z,0
2018-01-04T02:41:52.337Z,0
2018-01-04T02:43:00.865Z,0
2018-01-04T02:44:09.387Z,0
2018-01-04T02:45:17.966Z,0
2018-01-04T02:46:26.535Z,0
2018-01-04T02:47:35.323Z,0
2018-01-04T02:48:44.152Z,0
2018-01-04T02:49:53.202Z,0
2018-01-04T02:51:02.250Z,0
2018-01-04T02:52:11.075Z,0
2018-01-04T02:53:20.142Z,0
2018-01-04T02:54:28.953Z,0
2018-01-04T02:55:38.010Z,0
2018-01-04T02:56:46.808Z,0
2018-01-04T02:57:55.870Z,0
2018-01-04T02:59:04.653Z,0
2018-01-04T03:00:13.443Z,0
2018-01-04T03:01:22.504Z,0
2018-01-04T03:02:31.025Z,0
2018-01-04T03:03:39.811Z,0
2018-01-04T03:04:48.595Z,0
2018-01-04T03:05:57.379Z,0
2018-01-04T03:07:06.167Z,0
2018-01-04T03:08:14.688Z,0
2018-01-04T03:09:23.473Z,0
2018-01-04T03:10:31.997Z,0
2018-01-04T03:11:41.050Z,0
2018-01-04T03:12:49.579Z,0
2018-01-04T03:13:58.104Z,0
2018-01-04T03:15:06.637Z,0
2018-01-04T03:16:15.432Z,0
2018-01-04T03:17:23.956Z,0
2018-01-04T03:18:32.745Z,0
2018-01-04T03:19:41.538Z,0
2018-01-04T03:20:50.329Z,0
2018-01-04T03:21:59.127Z,0
2018-01-04T03:23:07.858Z,0
2018-01-04T03:24:16.648Z,0
2018-01-04T03:25:25.193Z,0
2018-01-04T03:26:33.984Z,0
2018-01-04T03:27:42.507Z,0
2018-01-04T03:28:51.820Z,0
2018-01-04T03:30:00.348Z,0
2018-01-04T03:31:08.928Z,0
2018-01-04T03:32:17.715Z,0
2018-01-04T03:33:26.246Z,0
2018-01-04T03:34:35.036Z,0
2018-01-04T03:35:44.091Z,0
2018-01-04T03:36:53.148Z,0
2018-01-04T03:38:01.938Z,0
2018-01-04T03:39:11.002Z,0
2018-01-04T03:40:20.053Z,0
2018-01-04T03:41:28.848Z,0
2018-01-04T03:42:37.375Z,0
2018-01-04T03:43:46.168Z,0
2018-01-04T03:44:54.962Z,0
2018-01-04T03:46:03.758Z,0
2018-01-04T03:47:12.284Z,0
2018-01-04T03:48:21.614Z,0
2018-01-04T03:49:30.135Z,0
2018-01-04T03:50:38.655Z,0
2018-01-04T03:51:47.436Z,0
2018-01-04T03:52:55.958Z,0
2018-01-04T03:54:04.483Z,0
2018-01-04T03:55:13.011Z,0
2018-01-04T03:56:22.062Z,0
2018-01-04T03:57:31.387Z,0
2018-01-04T03:58:40.430Z,0
2018-01-04T03:59:49.217Z,0
2018-01-04T04:00:57.999Z,0
2018-01-04T04:02:06.786Z,0
2018-01-04T04:03:15.565Z,0
2018-01-04T04:04:24.616Z,0
2018-01-04T04:05:33.669Z,0
2018-01-04T04:06:42.456Z,0
2018-01-04T04:07:51.247Z,0
2018-01-04T04:09:00.033Z,0
2018-01-04T04:10:08.555Z,0
2018-01-04T04:11:17.084Z,0
2018-01-04T04:12:26.142Z,0
2018-01-04T04:13:34.671Z,0
2018-01-04T04:14:43.465Z,0
2018-01-04T04:15:52.541Z,0
2018-01-04T04:17:01.330Z,0
2018-01-04T04:18:10.123Z,0
2018-01-04T04:19:18.913Z,0
2018-01-04T04:20:27.979Z,0
2018-01-04T04:21:36.764Z,0
2018-01-04T04:22:45.556Z,0
2018-01-04T04:23:54.342Z,0
2018-01-04T04:25:03.392Z,0
2018-01-04T04:26:12.184Z,0
2018-01-04T04:27:21.510Z,0
2018-01-04T04:28:30.293Z,0
2018-01-04T04:29:39.355Z,0
2018-01-04T04:30:48.139Z,0
2018-01-04T04:31:57.454Z,0
2018-01-04T04:33:06.296Z,0
2018-01-04T04:34:15.090Z,0
2018-01-04T04:35:24.147Z,0
2018-01-04T04:36:32.940Z,0
2018-01-04T04:37:42.263Z,0
2018-01-04T04:38:51.054Z,0
2018-01-04T04:40:00.118Z,0
2018-01-04T04:41:08.914Z,0
2018-01-04T04:42:17.700Z,0
2018-01-04T04:43:26.225Z,0
2018-01-04T04:44:35.015Z,0
2018-01-04T04:45:43.804Z,0
2018-01-04T04:46:52.329Z,0
2018-01-04T04:48:01.116Z,0
2018-01-04T04:49:10.431Z,0
2018-01-04T04:50:19.220Z,0
2018-01-04T04:51:27.751Z,0
2018-01-04T04:52:36.813Z,0
2018-01-04T04:53:45.606Z,0
2018-01-04T04:54:54.385Z,0
2018-01-04T04:56:03.442Z,0
2018-01-04T04:57:11.973Z,0
2018-01-04T04:58:20.764Z,0
2018-01-04T04:59:29.292Z,0
2018-01-04T05:00:38.083Z,0
2018-01-04T05:01:46.605Z,0
2018-01-04T05:02:55.130Z,0
2018-01-04T05:04:03.918Z,0
2018-01-04T05:05:12.446Z,0
2018-01-04T05:06:20.964Z,0
2018-01-04T05:07:29.751Z,0
2018-01-04T05:08:38.992Z,0
2018-01-04T05:09:47.512Z,0
2018-01-04T05:10:56.032Z,0
2018-01-04T05:12:04.824Z,0
2018-01-04T05:13:13.347Z,0
2018-01-04T05:14:22.672Z,0
2018-01-04T05:15:31.720Z,0
2018-01-04T05:16:40.248Z,0
2018-01-04T05:17:49.026Z,0
2018-01-04T05:18:57.824Z,0
2018-01-04T05:20:07.146Z,0
2018-01-04T05:21:15.682Z,0
2018-01-04T05:22:24.732Z,0
2018-01-04T05:23:33.821Z,0
2018-01-04T05:24:42.752Z,0
2018-01-04T05:25:51.278Z,0
2018-01-04T05:27:00.329Z,0
2018-01-04T05:28:08.855Z,0
2018-01-04T05:29:17.909Z,0
2018-01-04T05:30:26.700Z,0
2018-01-04T05:31:35.484Z,0
2018-01-04T05:32:44.272Z,0
2018-01-04T05:33:53.069Z,0
2018-01-04T05:35:01.859Z,0
2018-01-04T05:36:10.385Z,0
2018-01-04T05:37:18.904Z,0
2018-01-04T05:38:27.952Z,0
2018-01-04T05:39:36.748Z,0
2018-01-04T05:40:46.073Z,0
2018-01-04T05:41:55.129Z,0
2018-01-04T05:43:04.180Z,0
2018-01-04T05:44:12.965Z,0
2018-01-04T05:45:21.754Z,0
2018-01-04T05:46:30.398Z,0
2018-01-04T05:47:38.945Z,0
2018-01-04T05:48:47.997Z,0
2018-01-04T05:49:56.793Z,0
2018-01-04T05:51:05.578Z,0
2018-01-04T05:52:14.378Z,0
2018-01-04T05:53:23.169Z,0
2018-01-04T05:54:31.697Z,0
2018-01-04T05:55:40.225Z,0
2018-01-04T05:56:49.025Z,0
2018-01-04T05:57:57.817Z,0
2018-01-04T05:59:06.604Z,0
2018-01-04T06:00:15.127Z,0
2018-01-04T06:01:23.915Z,0
2018-01-04T06:02:32.444Z,0
2018-01-04T06:03:41.233Z,0
2018-01-04T06:04:50.022Z,0
2018-01-04T06:05:58.549Z,0
2018-01-04T06:07:07.397Z,0
2018-01-04T06:08:16.195Z,0
2018-01-04T06:09:24.724Z,0
2018-01-04T06:10:33.247Z,0
2018-01-04T06:11:42.040Z,0
2018-01-04T06:12:50.849Z,0
2018-01-04T06:13:59.902Z,0
2018-01-04T06:15:08.690Z,0
2018-01-04T06:16:17.212Z,0
2018-01-04T06:17:26.271Z,0
2018-01-04T06:18:34.792Z,0
2018-01-04T06:19:43.851Z,0
2018-01-04T06:20:52.909Z,0
2018-01-04T06:22:01.706Z,0
2018-01-04T06:23:10.233Z,0
2018-01-04T06:24:18.763Z,0
2018-01-04T06:25:27.819Z,0
2018-01-04T06:26:36.609Z,0
2018-01-04T06:27:45.399Z,0
2018-01-04T06:28:54.187Z,0
2018-01-04T06:30:02.983Z,0
2018-01-04T06:31:12.314Z,0
2018-01-04T06:32:21.103Z,0
2018-01-04T06:33:29.892Z,0
2018-01-04T06:34:38.413Z,0
2018-01-04T06:35:47.203Z,0
2018-01-04T06:36:55.994Z,0
2018-01-04T06:38:05.067Z,0
2018-01-04T06:39:13.855Z,0
2018-01-04T06:40:22.377Z,0
2018-01-04T06:41:31.169Z,0
2018-01-04T06:42:40.485Z,0
2018-01-04T06:43:49.530Z,0
2018-01-04T06:44:58.057Z,0
2018-01-04T06:46:06.851Z,0
2018-01-04T06:47:15.650Z,0
2018-01-04T06:48:24.171Z,0
2018-01-04T06:49:32.966Z,0
2018-01-04T06:50:41.752Z,0
2018-01-04T06:51:50.542Z,0
2018-01-04T06:52:59.591Z,0
2018-01-04T06:54:08.388Z,0
2018-01-04T06:55:17.446Z,0
2018-01-04T06:56:25.970Z,0
2018-01-04T06:57:34.760Z,0
2018-01-04T06:58:43.816Z,0
2018-01-04T06:59:52.870Z,0
2018-01-04T07:01:01.395Z,0
2018-01-04T07:02:10.183Z,0
2018-01-04T07:03:18.977Z,0
2018-01-04T07:04:28.030Z,0
2018-01-04T07:05:37.082Z,0
2018-01-04T07:06:46.145Z,4
2018-01-04T07:07:54.665Z,4
2018-01-04T07:09:03.764Z,4
2018-01-04T07:10:12.822Z,0
2018-01-04T07:11:21.610Z,0
2018-01-04T07:12:30.135Z,4
2018-01-04T07:13:38.925Z,4
2018-01-04T07:14:47.983Z,4
2018-01-04T07:15:56.777Z,4
2018-01-04T07:17:05.573Z,8
2018-01-04T07:18:14.633Z,4
2018-01-04T07:19:23.157Z,8
2018-01-04T07:20:31.684Z,8
2018-01-04T07:21:40.741Z,8
2018-01-04T07:22:49.266Z,12
2018-01-04T07:23:57.788Z,12
2018-01-04T07:25:06.585Z,12
2018-01-04T07:26:15.648Z,20
2018-01-04T07:27:24.176Z,16
2018-01-04T07:28:32.964Z,20
2018-01-04T07:29:41.754Z,20
2018-01-04T07:30:50.286Z,24
2018-01-04T07:31:59.614Z,28
2018-01-04T07:33:08.404Z,60
2018-01-04T07:34:17.192Z,80
2018-01-04T07:35:25.979Z,100
2018-01-04T07:36:34.513Z,112
2018-01-04T07:37:43.037Z,120
2018-01-04T07:38:52.356Z,124
2018-01-04T07:40:01.143Z,132
2018-01-04T07:41:09.670Z,144
2018-01-04T07:42:19.146Z,148
2018-01-04T07:43:27.674Z,156
2018-01-04T07:44:36.465Z,164
2018-01-04T07:45:44.989Z,172
2018-01-04T07:46:54.046Z,184
2018-01-04T07:48:02.834Z,196
2018-01-04T07:49:11.356Z,204
2018-01-04T07:50:20.408Z,216
2018-01-04T07:51:29.202Z,232
2018-01-04T07:52:38.270Z,244
2018-01-04T07:53:47.066Z,256
2018-01-04T07:54:56.337Z,264
2018-01-04T07:56:04.887Z,276
2018-01-04T07:57:13.855Z,284
2018-01-04T07:58:23.056Z,304
2018-01-04T07:59:31.607Z,324
2018-01-04T08:00:40.670Z,344
2018-01-04T08:01:49.763Z,360
2018-01-04T08:02:58.548Z,380
2018-01-04T08:04:07.346Z,388
2018-01-04T08:05:15.907Z,396
2018-01-04T08:06:24.443Z,408
2018-01-04T08:07:33.507Z,416
2018-01-04T08:08:42.325Z,424
2018-01-04T08:09:50.857Z,432
2018-01-04T08:10:59.642Z,444
2018-01-04T08:12:08.436Z,460
2018-01-04T08:13:17.234Z,484
2018-01-04T08:14:26.037Z,516
2018-01-04T08:15:35.375Z,540
2018-01-04T08:16:43.908Z,568
2018-01-04T08:17:52.434Z,572
2018-01-04T08:19:00.969Z,560
2018-01-04T08:20:09.507Z,564
2018-01-04T08:21:18.049Z,552
2018-01-04T08:22:26.835Z,556
2018-01-04T08:23:35.418Z,556
2018-01-04T08:24:43.938Z,576
2018-01-04T08:25:52.462Z,572
2018-01-04T08:27:00.992Z,596
2018-01-04T08:28:09.789Z,608
2018-01-04T08:29:18.586Z,628
2018-01-04T08:30:27.112Z,640
2018-01-04T08:31:35.902Z,708
2018-01-04T08:32:44.957Z,772
2018-01-04T08:33:53.748Z,804
2018-01-04T08:35:02.550Z,828
2018-01-04T08:36:11.081Z,816
2018-01-04T08:37:19.869Z,792
2018-01-04T08:38:28.397Z,780
2018-01-04T08:39:37.452Z,764
2018-01-04T08:40:45.970Z,728
2018-01-04T08:41:55.025Z,752
2018-01-04T08:43:04.115Z,756
2018-01-04T08:44:12.643Z,768
2018-01-04T08:45:21.431Z,800
2018-01-04T08:46:30.226Z,860
2018-01-04T08:47:39.354Z,900
2018-01-04T08:48:47.889Z,848
2018-01-04T08:49:56.562Z,820
2018-01-04T08:51:05.556Z,840
2018-01-04T08:52:14.163Z,832
2018-01-04T08:53:22.696Z,824
2018-01-04T08:54:31.743Z,744
2018-01-04T08:55:40.533Z,832
2018-01-04T08:56:49.331Z,816
2018-01-04T08:57:58.120Z,828
2018-01-04T08:59:07.075Z,840
2018-01-04T09:00:16.215Z,876
2018-01-04T09:01:24.931Z,944
2018-01-04T09:02:33.997Z,932
2018-01-04T09:03:42.540Z,976
2018-01-04T09:04:51.041Z,1004
2018-01-04T09:05:59.835Z,1056
2018-01-04T09:07:08.362Z,1116
2018-01-04T09:08:17.414Z,1188
2018-01-04T09:09:26.463Z,1192
2018-01-04T09:10:35.520Z,1236
2018-01-04T09:11:44.295Z,1272
2018-01-04T09:12:53.098Z,1216
2018-01-04T09:14:02.430Z,1204
2018-01-04T09:15:11.233Z,1204
2018-01-04T09:16:19.764Z,1288
2018-01-04T09:17:28.831Z,1400
2018-01-04T09:18:37.624Z,1464
2018-01-04T09:19:46.422Z,1432
2018-01-04T09:20:55.219Z,1320
2018-01-04T09:22:04.010Z,1204
2018-01-04T09:23:13.068Z,1056
2018-01-04T09:24:21.611Z,1068
2018-01-04T09:25:30.399Z,1040
2018-01-04T09:26:39.726Z,1032
2018-01-04T09:27:48.262Z,1000
2018-01-04T09:28:57.049Z,1016
2018-01-04T09:30:06.103Z,1088
2018-01-04T09:31:14.628Z,1244
2018-01-04T09:32:23.670Z,1300
2018-01-04T09:33:32.512Z,1228
2018-01-04T09:34:41.020Z,1168
2018-01-04T09:35:49.810Z,1136
2018-01-04T09:36:59.129Z,1120
2018-01-04T09:38:07.931Z,1116
2018-01-04T09:39:16.790Z,1220
2018-01-04T09:40:25.845Z,1332
2018-01-04T09:41:34.638Z,1408
2018-01-04T09:42:43.426Z,1436
2018-01-04T09:43:52.765Z,1508
2018-01-04T09:45:01.297Z,1488
2018-01-04T09:46:09.822Z,1472
2018-01-04T09:47:18.627Z,1472
2018-01-04T09:48:27.688Z,1264
2018-01-04T09:49:36.478Z,1144
2018-01-04T09:50:45.271Z,1308
2018-01-04T09:51:54.328Z,1584
2018-01-04T09:53:03.379Z,1592
2018-01-04T09:54:12.430Z,1472
2018-01-04T09:55:21.226Z,1348
2018-01-04T09:56:30.020Z,1260
2018-01-04T09:57:38.544Z,1404
2018-01-04T09:58:47.348Z,1556
2018-01-04T09:59:55.857Z,1612
2018-01-04T10:01:04.672Z,1616
2018-01-04T10:02:13.464Z,1612
2018-01-04T10:03:22.518Z,1740
2018-01-04T10:04:31.579Z,1924
2018-01-04T10:05:40.647Z,2100
2018-01-04T10:06:49.174Z,2168
2018-01-04T10:07:58.495Z,2172
2018-01-04T10:09:07.289Z,2148
2018-01-04T10:10:15.825Z,2124
2018-01-04T10:11:24.618Z,2224
2018-01-04T10:12:33.683Z,2360
2018-01-04T10:13:42.473Z,2568
2018-01-04T10:14:51.375Z,2636
2018-01-04T10:16:00.158Z,2688
2018-01-04T10:17:09.488Z,2724
2018-01-04T10:18:18.007Z,2828
2018-01-04T10:19:26.794Z,2928
2018-01-04T10:20:35.858Z,2948
2018-01-04T10:21:44.384Z,2964
2018-01-04T10:22:53.177Z,3036
2018-01-04T10:24:02.006Z,3164
2018-01-04T10:25:11.068Z,3260
2018-01-04T10:26:19.863Z,3288
2018-01-04T10:27:28.390Z,3200
2018-01-04T10:28:37.492Z,3060
2018-01-04T10:29:46.017Z,2964
2018-01-04T10:30:54.810Z,2912
2018-01-04T10:32:03.598Z,2984
2018-01-04T10:33:12.662Z,3184
2018-01-04T10:34:21.186Z,3540
2018-01-04T10:35:29.714Z,3732
2018-01-04T10:36:38.242Z,3524
2018-01-04T10:37:47.030Z,3272
2018-01-04T10:38:56.076Z,3156
2018-01-04T10:40:04.600Z,3148
2018-01-04T10:41:13.450Z,3128
2018-01-04T10:42:22.343Z,3092
2018-01-04T10:43:31.134Z,3084
2018-01-04T10:44:40.193Z,3252
2018-01-04T10:45:48.729Z,3500
2018-01-04T10:46:57.525Z,3720
2018-01-04T10:48:06.579Z,3972
2018-01-04T10:49:15.373Z,4132
2018-01-04T10:50:24.435Z,4216
2018-01-04T10:51:33.236Z,4316
2018-01-04T10:52:42.291Z,4324
2018-01-04T10:53:50.822Z,4156
2018-01-04T10:54:59.613Z,4012
2018-01-04T10:56:08.402Z,3936
2018-01-04T10:57:16.932Z,3760
2018-01-04T10:58:25.472Z,3552
2018-01-04T10:59:34.403Z,3328
2018-01-04T11:00:43.209Z,3192
2018-01-04T11:01:51.999Z,3176
2018-01-04T11:03:00.944Z,3192
2018-01-04T11:04:09.959Z,3196
2018-01-04T11:05:18.849Z,3268
2018-01-04T11:06:27.646Z,3396
2018-01-04T11:07:36.708Z,3460
2018-01-04T11:08:45.230Z,3452
2018-01-04T11:09:54.024Z,3440
2018-01-04T11:11:02.553Z,3436
2018-01-04T11:12:11.888Z,3496
2018-01-04T11:13:21.100Z,3424
2018-01-04T11:14:30.068Z,3176
2018-01-04T11:15:39.174Z,2920
2018-01-04T11:16:48.130Z,2768
2018-01-04T11:17:57.295Z,2584
2018-01-04T11:19:07.965Z,2416
2018-01-04T11:20:17.865Z,2336
2018-01-04T11:21:29.580Z,2260
2018-01-04T11:22:40.541Z,2264
2018-01-04T11:23:51.227Z,2264
2018-01-04T11:25:02.422Z,2248
2018-01-04T11:26:12.652Z,2144
2018-01-04T11:27:21.567Z,2012
2018-01-04T11:28:30.806Z,2056
2018-01-04T11:29:40.072Z,2188
2018-01-04T11:30:48.973Z,2216
2018-01-04T11:31:57.776Z,2348
2018-01-04T11:33:06.303Z,2320
2018-01-04T11:34:15.357Z,2328
2018-01-04T11:35:24.149Z,2328
2018-01-04T11:36:32.954Z,2512
2018-01-04T11:37:42.016Z,2736
2018-01-04T11:38:51.067Z,2624
2018-01-04T11:39:59.857Z,2440
2018-01-04T11:41:08.384Z,2236
2018-01-04T11:42:17.171Z,2340
2018-01-04T11:43:25.698Z,2264
2018-01-04T11:44:34.770Z,2400
2018-01-04T11:45:43.589Z,2420
2018-01-04T11:46:53.444Z,2700
2018-01-04T11:48:02.882Z,2756
2018-01-04T11:49:11.831Z,2324
2018-01-04T11:50:20.353Z,2004
2018-01-04T11:51:28.880Z,2068
2018-01-04T11:52:37.939Z,2028
2018-01-04T11:53:47.535Z,2288
2018-01-04T11:54:56.329Z,2332
2018-01-04T11:56:05.122Z,2128
2018-01-04T11:57:13.678Z,2576
2018-01-04T11:58:22.531Z,2496
2018-01-04T11:59:31.046Z,2440
2018-01-04T12:00:39.845Z,2668
2018-01-04T12:01:48.376Z,2828
2018-01-04T12:02:57.437Z,3284
2018-01-04T12:04:06.239Z,3304
2018-01-04T12:05:15.605Z,3120
2018-01-04T12:06:24.135Z,3124
2018-01-04T12:07:32.672Z,2772
2018-01-04T12:08:41.457Z,2488
2018-01-04T12:09:50.257Z,2264
2018-01-04T12:10:59.052Z,2920
2018-01-04T12:12:07.844Z,3464
2018-01-04T12:13:16.643Z,3360
2018-01-04T12:14:25.171Z,3392
2018-01-04T12:15:33.967Z,3228
2018-01-04T12:16:42.493Z,3096
2018-01-04T12:17:51.020Z,2716
2018-01-04T12:18:59.815Z,2148
2018-01-04T12:20:08.339Z,1884
2018-01-04T12:21:17.665Z,1844
2018-01-04T12:22:26.191Z,2048
2018-01-04T12:23:34.718Z,2352
2018-01-04T12:24:43.508Z,2488
2018-01-04T12:25:52.038Z,2700
2018-01-04T12:27:00.564Z,2952
2018-01-04T12:28:09.090Z,3012
2018-01-04T12:29:18.146Z,3316
2018-01-04T12:30:26.669Z,3756
2018-01-04T12:31:35.198Z,3956
2018-01-04T12:32:43.724Z,3848
2018-01-04T12:33:52.773Z,3700
2018-01-04T12:35:01.837Z,3688
2018-01-04T12:36:10.632Z,2968
2018-01-04T12:37:19.693Z,2668
2018-01-04T12:38:28.221Z,2676
2018-01-04T12:39:37.274Z,2776
2018-01-04T12:40:46.602Z,2560
2018-01-04T12:41:55.123Z,2304
2018-01-04T12:43:04.447Z,2348
2018-01-04T12:44:13.246Z,2000
2018-01-04T12:45:22.571Z,2176
2018-01-04T12:46:33.116Z,2048
2018-01-04T12:47:41.911Z,1732
2018-01-04T12:48:50.706Z,1712
2018-01-04T12:49:59.501Z,1720
2018-01-04T12:51:08.023Z,1680
2018-01-04T12:52:16.819Z,1648
2018-01-04T12:53:25.874Z,1724
2018-01-04T12:54:34.670Z,1612
2018-01-04T12:55:43.728Z,1848
2018-01-04T12:56:52.797Z,1888
2018-01-04T12:58:01.602Z,1928
2018-01-04T12:59:10.397Z,1904
2018-01-04T13:00:18.922Z,1836
2018-01-04T13:01:27.980Z,1844
2018-01-04T13:02:36.510Z,2016
2018-01-04T13:03:45.298Z,2328
2018-01-04T13:04:53.828Z,2044
2018-01-04T13:06:02.358Z,1596
2018-01-04T13:07:11.195Z,1628
2018-01-04T13:08:20.246Z,2276
2018-01-04T13:09:29.570Z,2072
2018-01-04T13:10:38.626Z,1868
2018-01-04T13:11:47.150Z,2020
2018-01-04T13:12:55.932Z,2456
2018-01-04T13:14:04.985Z,2084
2018-01-04T13:15:14.041Z,2228
2018-01-04T13:16:22.872Z,2312
2018-01-04T13:17:31.402Z,2232
2018-01-04T13:18:40.760Z,2184
2018-01-04T13:19:49.571Z,1924
2018-01-04T13:20:58.898Z,1464
2018-01-04T13:22:07.422Z,1200
2018-01-04T13:23:16.742Z,1356
2018-01-04T13:24:25.803Z,1384
2018-01-04T13:25:34.589Z,1488
2018-01-04T13:26:43.648Z,1360
2018-01-04T13:27:52.439Z,1332
2018-01-04T13:29:01.276Z,1144
2018-01-04T13:30:10.081Z,984
2018-01-04T13:31:18.867Z,880
2018-01-04T13:32:27.396Z,904
2018-01-04T13:33:36.455Z,1000
2018-01-04T13:34:45.532Z,1312
2018-01-04T13:35:54.318Z,1276
2018-01-04T13:37:03.110Z,1012
2018-01-04T13:38:11.910Z,916
2018-01-04T13:39:20.969Z,856
2018-01-04T13:40:29.769Z,856
2018-01-04T13:41:39.095Z,880
2018-01-04T13:42:47.896Z,1048
2018-01-04T13:43:57.535Z,948
2018-01-04T13:45:06.376Z,852
2018-01-04T13:46:15.459Z,900
2018-01-04T13:47:23.990Z,992
2018-01-04T13:48:32.518Z,964
2018-01-04T13:49:41.108Z,972
2018-01-04T13:50:49.632Z,972
2018-01-04T13:51:58.161Z,928
2018-01-04T13:53:07.224Z,892
2018-01-04T13:54:15.749Z,856
2018-01-04T13:55:24.805Z,800
2018-01-04T13:56:33.718Z,740
2018-01-04T13:57:42.245Z,624
2018-01-04T13:58:51.040Z,600
2018-01-04T13:59:59.832Z,544
2018-01-04T14:01:09.191Z,492
2018-01-04T14:02:18.089Z,476
2018-01-04T14:03:26.612Z,448
2018-01-04T14:04:35.182Z,400
2018-01-04T14:05:43.708Z,356
2018-01-04T14:06:52.497Z,364
2018-01-04T14:08:01.283Z,368
2018-01-04T14:09:10.074Z,348
2018-01-04T14:10:18.599Z,392
2018-01-04T14:11:27.140Z,396
2018-01-04T14:12:35.933Z,432
2018-01-04T14:13:44.725Z,500
2018-01-04T14:14:53.522Z,436
2018-01-04T14:16:02.859Z,560
2018-01-04T14:17:11.389Z,528
2018-01-04T14:18:20.179Z,576
2018-01-04T14:19:28.703Z,600
2018-01-04T14:20:37.285Z,732
2018-01-04T14:21:45.840Z,836
2018-01-04T14:22:54.365Z,900
2018-01-04T14:24:02.888Z,716
2018-01-04T14:25:11.944Z,860
2018-01-04T14:26:20.741Z,892
2018-01-04T14:27:29.547Z,944
2018-01-04T14:28:38.398Z,764
2018-01-04T14:29:47.467Z,664
2018-01-04T14:30:56.009Z,884
2018-01-04T14:32:04.806Z,800
2018-01-04T14:33:13.334Z,632
2018-01-04T14:34:22.134Z,668
2018-01-04T14:35:31.228Z,748
2018-01-04T14:36:39.762Z,796
2018-01-04T14:37:48.494Z,556
2018-01-04T14:38:57.036Z,508
2018-01-04T14:40:05.585Z,472
2018-01-04T14:41:14.383Z,476
2018-01-04T14:42:23.194Z,472
2018-01-04T14:43:32.245Z,448
2018-01-04T14:44:41.041Z,392
2018-01-04T14:45:49.563Z,308
2018-01-04T14:46:58.638Z,376
2018-01-04T14:48:07.437Z,380
2018-01-04T14:49:15.970Z,360
2018-01-04T14:50:24.776Z,380
2018-01-04T14:51:33.724Z,292
2018-01-04T14:52:42.248Z,372
2018-01-04T14:53:51.040Z,308
2018-01-04T14:54:59.863Z,244
2018-01-04T14:56:08.358Z,264
2018-01-04T14:57:17.150Z,208
2018-01-04T14:58:25.962Z,224
2018-01-04T14:59:35.535Z,224
2018-01-04T15:00:44.459Z,228
2018-01-04T15:01:53.598Z,232
2018-01-04T15:03:02.257Z,264
2018-01-04T15:04:11.050Z,368
2018-01-04T15:05:19.593Z,384
2018-01-04T15:06:28.674Z,312
2018-01-04T15:07:37.202Z,268
2018-01-04T15:08:45.727Z,296
2018-01-04T15:09:54.789Z,240
2018-01-04T15:11:03.848Z,256
2018-01-04T15:12:13.091Z,240
2018-01-04T15:13:22.008Z,236
2018-01-04T15:14:31.387Z,200
2018-01-04T15:15:39.913Z,196
2018-01-04T15:16:48.971Z,224
2018-01-04T15:17:57.776Z,188
2018-01-04T15:19:06.837Z,184
2018-01-04T15:20:16.894Z,196
2018-01-04T15:21:26.226Z,276
2018-01-04T15:22:35.889Z,276
2018-01-04T15:23:44.692Z,232
2018-01-04T15:24:53.636Z,184
2018-01-04T15:26:04.153Z,164
2018-01-04T15:27:14.219Z,172
2018-01-04T15:28:23.015Z,144
2018-01-04T15:29:32.079Z,140
2018-01-04T15:30:40.605Z,148
2018-01-04T15:31:49.137Z,172
2018-01-04T15:32:58.209Z,168
2018-01-04T15:34:07.216Z,184
2018-01-04T15:35:16.049Z,156
2018-01-04T15:36:25.251Z,140
2018-01-04T15:37:35.041Z,116
2018-01-04T15:38:43.680Z,100
2018-01-04T15:39:52.212Z,88
2018-01-04T15:41:01.290Z,88
2018-01-04T15:42:10.413Z,96
2018-01-04T15:43:18.944Z,96
2018-01-04T15:44:28.000Z,100
2018-01-04T15:45:36.797Z,104
2018-01-04T15:46:45.581Z,96
2018-01-04T15:47:54.374Z,96
2018-01-04T15:49:03.702Z,92
2018-01-04T15:50:12.557Z,92
2018-01-04T15:51:21.888Z,92
2018-01-04T15:52:30.952Z,92
2018-01-04T15:53:39.484Z,88
2018-01-04T15:54:48.030Z,88
2018-01-04T15:55:56.574Z,88
2018-01-04T15:57:05.368Z,84
2018-01-04T15:58:13.931Z,80
2018-01-04T15:59:22.733Z,80
2018-01-04T16:00:31.589Z,76
2018-01-04T16:01:40.400Z,76
2018-01-04T16:02:48.932Z,76
2018-01-04T16:03:57.473Z,76
2018-01-04T16:05:06.348Z,76
2018-01-04T16:06:15.472Z,76
2018-01-04T16:07:24.643Z,72
2018-01-04T16:08:33.165Z,72
2018-01-04T16:09:42.501Z,72